Time;durP1;ratioP1;P1;durP2;ratioP2;P2;SDS_P1;SDS_P2;PMS_P1;PMS_P2;Temp;Humidity;BMP_temperature;BMP_pressure;BME280_temperature;BME280_humidity;BME280_pressure;Samples;Min_cycle;Max_cycle;Signal;HPM_P1;HPM_P2
2023/03/18 00:00:08;;;;;;;;;22.25;22.25;;;;;14.72;72.26;100487.22;6249749;22;45610;-69
2023/03/18 00:02:35;;;;;;;;;32.00;27.00;;;;;14.67;72.06;100478.56;6277516;22;45398;-69
2023/03/18 00:05:01;;;;;;;;;25.50;22.00;;;;;14.73;72.88;100498.84;6276982;22;45503;-68
2023/03/18 00:07:27;;;;;;;;;19.00;17.75;;;;;14.65;72.38;100488.53;6249091;22;45272;-69
2023/03/18 00:09:52;;;;;;;;;32.50;28.00;;;;;14.53;72.32;100473.00;6249542;22;45458;-69
2023/03/18 00:12:17;;;;;;;;;23.25;23.25;;;;;14.69;72.30;100508.03;6276932;22;51550;-69
2023/03/18 00:14:42;;;;;;;;;21.50;21.25;;;;;14.58;72.18;100489.75;6277350;22;45312;-69
2023/03/18 00:17:08;;;;;;;;;24.50;22.50;;;;;14.54;72.22;100486.34;6275343;22;45271;-69
2023/03/18 00:19:33;;;;;;;;;25.50;22.50;;;;;14.59;72.17;100500.44;6274893;22;45240;-68
2023/03/18 00:21:59;;;;;;;;;24.00;22.00;;;;;14.61;71.67;100511.09;6249867;22;45401;-69
2023/03/18 00:24:26;;;;;;;;;21.00;20.25;;;;;14.50;71.99;100489.28;6275896;22;46246;-69
2023/03/18 00:26:52;;;;;;;;;22.25;21.75;;;;;14.56;71.79;100503.25;6276581;22;45384;-69
2023/03/18 00:29:17;;;;;;;;;22.00;21.00;;;;;14.53;72.18;100502.56;6275621;22;45313;-69
2023/03/18 00:31:43;;;;;;;;;22.50;22.25;;;;;14.50;71.81;100514.34;6276917;22;45310;-69
2023/03/18 00:34:08;;;;;;;;;18.25;18.25;;;;;14.48;71.94;100508.16;6276535;22;45356;-69
2023/03/18 00:36:35;;;;;;;;;21.00;19.25;;;;;14.50;71.57;100517.03;6276923;22;45284;-69
2023/03/18 00:39:02;;;;;;;;;18.50;18.50;;;;;14.43;71.73;100519.16;6249536;22;45224;-68
2023/03/18 00:41:31;;;;;;;;;21.50;20.75;;;;;14.40;71.93;100524.69;6249714;22;45450;-69
2023/03/18 00:43:57;;;;;;;;;20.00;19.00;;;;;14.38;71.38;100529.28;6249363;22;47105;-69
2023/03/18 00:46:32;;;;;;;;;19.00;18.75;;;;;14.33;71.61;100508.97;6248815;22;45836;-69
2023/03/18 00:49:00;;;;;;;;;18.25;16.00;;;;;14.36;71.50;100506.13;6277300;22;45338;-69
2023/03/18 00:51:29;;;;;;;;;19.00;17.00;;;;;14.25;71.27;100482.53;6277057;22;45396;-69
2023/03/18 00:53:57;;;;;;;;;21.00;19.75;;;;;14.25;71.25;100480.69;6276963;22;46110;-68
2023/03/18 00:56:25;;;;;;;;;19.50;18.00;;;;;14.38;71.36;100501.53;6249156;22;45460;-69
2023/03/18 00:58:52;;;;;;;;;20.50;17.75;;;;;14.39;71.29;100500.59;6249038;22;45311;-69
2023/03/18 01:01:19;;;;;;;;;20.75;20.50;;;;;14.24;71.44;100472.72;6277139;22;45431;-69
2023/03/18 01:03:45;;;;;;;;;20.00;18.00;;;;;14.33;71.16;100501.75;6249091;22;48123;-69
2023/03/18 01:06:16;;;;;;;;;18.75;16.75;;;;;14.31;71.26;100513.56;6277460;22;45346;-69
2023/03/18 01:08:42;;;;;;;;;19.00;16.75;;;;;14.18;71.04;100491.81;6249434;22;45324;-69
2023/03/18 01:11:09;;;;;;;;;19.25;18.25;;;;;14.17;71.21;100498.16;6249010;22;45430;-69
2023/03/18 01:13:36;;;;;;;;;21.25;19.50;;;;;14.23;71.34;100506.78;6277049;22;45288;-69
2023/03/18 01:16:02;;;;;;;;;15.75;14.50;;;;;14.23;71.49;100516.63;6277229;22;45616;-69
2023/03/18 01:18:29;;;;;;;;;20.25;19.00;;;;;14.11;71.36;100493.09;6275274;22;45398;-68
2023/03/18 01:20:54;;;;;;;;;17.75;15.75;;;;;14.19;71.24;100515.06;6249761;22;45511;-69
2023/03/18 01:23:20;;;;;;;;;16.50;14.25;;;;;14.07;71.20;100497.75;6248539;22;48136;-69
2023/03/18 01:25:45;;;;;;;;;15.00;14.25;;;;;13.98;71.14;100479.41;6276685;22;45340;-69
2023/03/18 01:28:12;;;;;;;;;20.25;14.00;;;;;13.95;71.37;100488.53;6248822;22;45356;-69
2023/03/18 01:30:37;;;;;;;;;14.00;13.50;;;;;14.04;71.34;100501.44;6276999;22;45393;-69
2023/03/18 01:33:04;;;;;;;;;17.25;15.75;;;;;14.02;71.09;100506.03;6276780;22;46348;-69
2023/03/18 01:35:31;;;;;;;;;13.00;13.00;;;;;14.00;71.43;100494.50;6276572;22;45479;-69
2023/03/18 01:37:57;;;;;;;;;18.00;17.50;;;;;13.85;71.49;100473.84;6249150;22;45383;-69
2023/03/18 01:40:23;;;;;;;;;15.75;14.00;;;;;13.77;71.46;100458.09;6276784;22;45383;-68
2023/03/18 01:42:58;;;;;;;;;13.75;13.75;;;;;13.70;71.23;100443.28;6276946;22;45507;-69
2023/03/18 01:45:27;;;;;;;;;15.75;15.00;;;;;13.90;71.04;100483.38;6249241;22;46011;-69
2023/03/18 01:47:54;;;;;;;;;11.00;11.00;;;;;13.86;71.16;100457.63;6248956;22;45292;-69
2023/03/18 01:50:40;;;;;;;;;11.00;10.25;;;;;13.94;71.11;100472.50;6277094;22;45327;-69
2023/03/18 01:53:10;;;;;;;;;11.50;11.25;;;;;13.89;71.26;100484.31;6276323;22;45534;-68
2023/03/18 01:55:37;;;;;;;;;8.50;8.00;;;;;13.83;71.01;100471.22;6276437;22;45238;-68
2023/03/18 01:58:08;;;;;;;;;11.75;10.00;;;;;13.76;71.13;100472.44;6276918;22;45225;-69
2023/03/18 02:00:40;;;;;;;;;11.00;9.75;;;;;13.88;71.14;100487.06;6275573;22;45433;-68
2023/03/18 02:03:06;;;;;;;;;8.75;8.75;;;;;13.79;70.96;100475.00;6276530;22;46551;-69
2023/03/18 02:05:31;;;;;;;;;9.75;9.50;;;;;13.71;71.00;100478.06;6277104;22;45728;-68
2023/03/18 02:07:57;;;;;;;;;13.25;10.75;;;;;13.85;71.04;100479.19;6277136;22;45308;-69
2023/03/18 02:10:25;;;;;;;;;8.50;8.00;;;;;13.65;70.93;100450.69;6276326;22;45363;-69
2023/03/18 02:12:59;;;;;;;;;10.50;7.75;;;;;13.47;70.84;100429.19;6275580;22;47099;-68
2023/03/18 02:15:26;;;;;;;;;10.75;10.00;;;;;13.65;70.76;100446.19;6248745;22;45343;-68
2023/03/18 02:18:09;;;;;;;;;4.75;4.75;;;;;13.71;70.87;100480.75;6276826;22;45323;-68
2023/03/18 02:20:47;;;;;;;;;10.25;9.50;;;;;13.72;70.70;100489.66;6249518;22;45778;-69
2023/03/18 02:23:28;;;;;;;;;8.50;7.00;;;;;13.71;70.81;100501.31;6249252;22;47254;-68
2023/03/18 02:25:59;;;;;;;;;9.25;8.75;;;;;13.72;70.80;100503.06;6277696;22;45479;-68
2023/03/18 02:28:28;;;;;;;;;5.00;5.00;;;;;13.72;70.89;100486.97;6276356;22;45262;-68
2023/03/18 02:30:58;;;;;;;;;5.00;5.00;;;;;13.69;70.99;100476.41;6277589;22;45568;-69
2023/03/18 02:33:29;;;;;;;;;9.00;7.25;;;;;13.71;70.55;100477.19;6277682;22;46138;-69
2023/03/18 02:36:03;;;;;;;;;7.00;7.00;;;;;13.64;70.55;100467.72;6249893;22;45659;-69
2023/03/18 02:38:28;;;;;;;;;6.50;5.50;;;;;13.67;70.23;100471.09;6277714;22;45379;-69
2023/03/18 02:40:54;;;;;;;;;6.50;6.50;;;;;13.64;70.81;100476.63;6277704;22;45632;-68
2023/03/18 02:43:24;;;;;;;;;7.25;6.75;;;;;13.60;70.57;100483.09;6250077;22;46230;-69
2023/03/18 02:46:07;;;;;;;;;6.50;5.00;;;;;13.57;70.67;100501.16;6250148;22;45241;-69
2023/03/18 02:48:39;;;;;;;;;7.00;7.00;;;;;13.55;70.69;100505.69;6276499;22;45288;-68
2023/03/18 02:51:06;;;;;;;;;9.00;9.00;;;;;13.42;70.88;100486.66;6250078;22;45811;-68
2023/03/18 02:53:32;;;;;;;;;7.25;7.25;;;;;13.52;70.83;100499.53;6249753;22;48030;-69
2023/03/18 02:55:58;;;;;;;;;7.00;7.00;;;;;13.47;70.69;100503.41;6277251;22;45535;-69
2023/03/18 02:58:23;;;;;;;;;7.25;6.50;;;;;13.46;70.83;100499.84;6277129;22;45357;-69
2023/03/18 03:00:49;;;;;;;;;6.00;6.00;;;;;13.42;70.97;100486.66;6274844;22;45709;-69
2023/03/18 03:03:14;;;;;;;;;6.50;6.50;;;;;13.45;70.92;100503.47;6277131;22;45525;-69
2023/03/18 03:05:39;;;;;;;;;8.00;5.75;;;;;13.48;70.84;100507.81;6275596;22;45266;-68
2023/03/18 03:08:05;;;;;;;;;6.50;6.50;;;;;13.31;70.93;100485.34;6277578;22;45277;-68
2023/03/18 03:10:31;;;;;;;;;8.50;7.50;;;;;13.33;71.02;100490.63;6248844;22;45908;-68
2023/03/18 03:12:57;;;;;;;;;7.50;6.00;;;;;13.31;71.20;100496.06;6277474;22;45950;-68
2023/03/18 03:15:23;;;;;;;;;5.50;5.50;;;;;13.28;70.89;100481.91;6277648;22;45315;-68
2023/03/18 03:17:48;;;;;;;;;8.25;7.75;;;;;13.29;71.17;100497.94;6277931;22;45495;-68
2023/03/18 03:20:14;;;;;;;;;6.00;6.00;;;;;13.25;71.42;100487.44;6277741;22;45306;-69
2023/03/18 03:22:40;;;;;;;;;10.00;6.00;;;;;13.32;71.13;100505.00;6277058;22;45994;-68
2023/03/18 03:25:07;;;;;;;;;6.25;6.25;;;;;13.24;71.23;100493.75;6248929;22;45886;-69
2023/03/18 03:27:32;;;;;;;;;7.00;7.00;;;;;13.13;71.15;100480.81;6249891;22;45295;-68
2023/03/18 03:29:58;;;;;;;;;9.00;9.00;;;;;13.16;71.33;100496.78;6277879;22;45342;-68
2023/03/18 03:32:23;;;;;;;;;6.50;6.00;;;;;13.24;71.10;100493.75;6276811;22;46785;-68
2023/03/18 03:34:49;;;;;;;;;6.50;6.00;;;;;13.32;71.12;100502.31;6277883;22;45248;-68
2023/03/18 03:37:14;;;;;;;;;7.00;7.00;;;;;13.17;71.47;100477.09;6249600;22;45243;-68
2023/03/18 03:39:39;;;;;;;;;7.25;5.75;;;;;13.31;71.37;100504.13;6277178;22;45199;-68
2023/03/18 03:42:05;;;;;;;;;6.25;6.25;;;;;13.22;71.32;100487.59;6275317;22;46214;-68
2023/03/18 03:44:31;;;;;;;;;8.75;8.75;;;;;13.35;71.23;100518.25;6277274;22;45664;-68
2023/03/18 03:46:56;;;;;;;;;7.00;6.00;;;;;13.32;71.22;100513.91;6249925;22;45326;-68
2023/03/18 03:49:22;;;;;;;;;6.50;6.00;;;;;13.30;71.10;100507.72;6277282;22;45414;-68
2023/03/18 03:51:47;;;;;;;;;7.00;6.00;;;;;13.21;71.14;100484.03;6249419;22;46802;-69
2023/03/18 03:54:14;;;;;;;;;7.00;6.25;;;;;13.39;71.07;100521.66;6277181;22;45476;-68
2023/03/18 03:56:39;;;;;;;;;7.75;7.25;;;;;13.26;71.03;100502.56;6275538;22;45383;-68
2023/03/18 03:59:05;;;;;;;;;9.25;6.25;;;;;13.16;71.05;100486.06;6277938;22;45498;-69
2023/03/18 04:01:31;;;;;;;;;8.50;7.00;;;;;13.01;71.24;100455.47;6248340;22;47717;-69
2023/03/18 04:03:56;;;;;;;;;6.75;6.75;;;;;13.33;71.44;100517.44;6249495;22;45256;-69
2023/03/18 04:06:22;;;;;;;;;7.75;7.75;;;;;13.20;71.56;100495.69;6276971;22;45404;-69
2023/03/18 04:08:47;;;;;;;;;10.00;10.00;;;;;13.34;71.37;100527.25;6277088;22;45462;-69
2023/03/18 04:11:13;;;;;;;;;9.75;8.75;;;;;13.32;71.66;100523.78;6249332;22;47191;-68
2023/03/18 04:13:38;;;;;;;;;7.25;6.75;;;;;13.18;71.61;100494.91;6276937;22;45244;-69
2023/03/18 04:16:04;;;;;;;;;8.75;8.00;;;;;13.27;71.94;100507.00;6277802;22;45246;-69
2023/03/18 04:18:29;;;;;;;;;9.00;8.00;;;;;13.20;72.03;100511.78;6249563;22;45655;-69
2023/03/18 04:20:55;;;;;;;;;8.00;8.00;;;;;13.25;72.17;100517.78;6249516;22;47265;-68
2023/03/18 04:23:20;;;;;;;;;7.00;7.00;;;;;13.18;72.35;100511.00;6276431;22;45290;-69
2023/03/18 04:25:46;;;;;;;;;5.00;4.25;;;;;12.99;72.42;100484.16;6276962;22;45614;-69
2023/03/18 04:28:12;;;;;;;;;7.50;7.50;;;;;13.12;72.61;100506.78;6277004;22;45362;-69
2023/03/18 04:30:38;;;;;;;;;5.00;5.00;;;;;13.20;72.36;100526.97;6243559;22;46979;-69
2023/03/18 04:33:04;;;;;;;;;10.00;7.00;;;;;13.21;72.64;100518.00;6246625;22;45390;-69
2023/03/18 04:35:29;;;;;;;;;6.25;5.75;;;;;13.19;72.78;100510.03;6246455;22;45387;-69
2023/03/18 04:37:54;;;;;;;;;6.50;6.00;;;;;13.27;72.92;100523.94;6246558;22;45319;-69
2023/03/18 04:40:20;;;;;;;;;6.00;5.00;;;;;13.14;72.77;100502.19;6244118;22;46836;-69
2023/03/18 04:42:46;;;;;;;;;5.75;5.75;;;;;13.20;72.58;100526.97;6245777;22;45451;-69
2023/03/18 04:45:14;;;;;;;;;8.25;7.25;;;;;13.22;73.37;100536.69;6246435;22;45265;-69
2023/03/18 04:47:40;;;;;;;;;6.75;6.00;;;;;13.23;73.09;100533.09;6245308;22;45523;-69
2023/03/18 04:50:09;;;;;;;;;5.00;5.00;;;;;13.14;72.99;100525.47;6244312;22;46927;-69
2023/03/18 04:52:35;;;;;;;;;8.00;7.00;;;;;13.23;72.88;100538.44;6246345;22;45330;-69
2023/03/18 04:55:00;;;;;;;;;10.25;8.25;;;;;13.10;73.10;100535.47;6246621;22;45330;-69
2023/03/18 04:57:27;;;;;;;;;9.00;8.25;;;;;12.83;73.40;100504.56;6246011;22;45176;-69
2023/03/18 04:59:52;;;;;;;;;7.25;6.00;;;;;13.03;73.26;100533.13;6246221;22;46258;-69
2023/03/18 05:02:18;;;;;;;;;8.25;8.25;;;;;13.10;73.53;100550.69;6244392;22;45187;-69
2023/03/18 05:04:44;;;;;;;;;9.00;7.50;;;;;12.90;73.57;100511.41;6244382;22;45379;-69
2023/03/18 05:07:13;;;;;;;;;6.75;6.75;;;;;13.03;73.60;100528.66;6245844;22;45308;-69
2023/03/18 05:09:38;;;;;;;;;7.50;6.50;;;;;13.03;73.60;100517.03;6245929;22;45392;-69
2023/03/18 05:12:04;;;;;;;;;9.75;7.00;;;;;13.07;73.81;100530.22;6245816;22;45336;-69
2023/03/18 05:14:30;;;;;;;;;6.75;6.00;;;;;12.95;73.87;100504.88;6244468;22;45448;-68
2023/03/18 05:16:55;;;;;;;;;8.00;7.00;;;;;12.94;73.67;100496.91;6245120;22;45507;-69
2023/03/18 05:19:21;;;;;;;;;8.25;6.50;;;;;13.05;74.08;100515.19;6244280;22;46994;-69
2023/03/18 05:21:46;;;;;;;;;7.75;6.75;;;;;13.00;73.61;100502.00;6246619;22;45255;-69
2023/03/18 05:24:12;;;;;;;;;9.75;9.75;;;;;13.00;73.78;100496.63;6244128;22;45303;-69
2023/03/18 05:26:37;;;;;;;;;7.50;6.00;;;;;13.12;74.00;100517.50;6243251;22;45421;-69
2023/03/18 05:29:03;;;;;;;;;8.25;8.25;;;;;13.05;73.64;100508.00;6244174;22;46973;-69
2023/03/18 05:31:28;;;;;;;;;6.25;6.25;;;;;13.08;74.01;100518.59;6244166;22;45284;-68
2023/03/18 05:33:53;;;;;;;;;9.00;8.00;;;;;13.01;73.83;100492.13;6245774;22;45481;-69
2023/03/18 05:36:19;;;;;;;;;5.00;5.00;;;;;12.98;73.88;100491.34;6243518;22;45220;-68
2023/03/18 05:38:44;;;;;;;;;7.75;6.00;;;;;13.00;73.76;100509.13;6243978;22;48130;-69
2023/03/18 05:41:09;;;;;;;;;8.50;8.00;;;;;12.94;73.84;100499.59;6245987;22;45240;-68
2023/03/18 05:43:35;;;;;;;;;8.25;8.25;;;;;12.94;73.96;100513.84;6246048;22;45247;-69
2023/03/18 05:46:00;;;;;;;;;9.50;7.50;;;;;12.93;73.85;100509.44;6245160;22;45698;-69
2023/03/18 05:48:26;;;;;;;;;0.25;0.25;;;;;12.96;73.89;100517.34;6245621;22;45535;-69
2023/03/18 05:50:52;;;;;;;;;11.50;9.50;;;;;12.87;73.85;100501.69;6245925;22;45356;-68
2023/03/18 05:53:17;;;;;;;;;7.50;6.25;;;;;12.97;73.94;100515.53;6246375;22;45304;-69
2023/03/18 05:55:43;;;;;;;;;9.50;8.75;;;;;12.76;73.59;100479.88;6246163;22;45313;-68
2023/03/18 05:58:08;;;;;;;;;8.75;7.25;;;;;12.95;73.89;100518.28;6244953;22;47554;-69
2023/03/18 06:00:36;;;;;;;;;10.50;10.50;;;;;12.89;74.05;100506.97;6247072;22;45342;-68
2023/03/18 06:03:02;;;;;;;;;7.00;4.75;;;;;12.98;73.74;100525.31;6247602;22;45317;-68
2023/03/18 06:05:28;;;;;;;;;5.50;5.50;;;;;12.91;73.86;100511.34;6247222;22;45550;-68
2023/03/18 06:07:54;;;;;;;;;6.00;6.00;;;;;12.90;73.87;100509.56;6246680;22;45621;-69
2023/03/18 06:10:21;;;;;;;;;7.25;6.25;;;;;12.91;73.84;100522.03;6244807;22;46070;-69
2023/03/18 06:12:48;;;;;;;;;7.25;7.25;;;;;12.66;73.84;100486.59;6246961;22;45323;-68
2023/03/18 06:15:14;;;;;;;;;5.75;4.75;;;;;12.76;74.04;100520.03;6245132;22;45342;-68
2023/03/18 06:17:39;;;;;;;;;6.75;6.75;;;;;12.70;74.10;100501.59;6244482;22;47367;-68
2023/03/18 06:20:07;;;;;;;;;6.00;6.00;;;;;12.79;74.02;100512.72;6246388;22;45291;-69
2023/03/18 06:22:34;;;;;;;;;5.00;5.00;;;;;12.79;74.29;100520.75;6246260;22;45353;-69
2023/03/18 06:25:00;;;;;;;;;5.25;5.00;;;;;12.68;74.21;100503.44;6244898;22;45344;-69
2023/03/18 06:27:25;;;;;;;;;7.00;5.00;;;;;12.72;74.33;100513.97;6246388;22;45205;-68
2023/03/18 06:29:51;;;;;;;;;4.00;4.00;;;;;12.71;74.10;100506.00;6247448;22;45504;-68
2023/03/18 06:32:16;;;;;;;;;4.00;4.00;;;;;12.79;74.19;100531.47;6274792;22;45384;-68
2023/03/18 06:34:42;;;;;;;;;4.25;3.75;;;;;12.71;73.89;100514.03;6275472;22;45388;-68
2023/03/18 06:37:08;;;;;;;;;4.00;3.75;;;;;12.54;74.15;100482.66;6277871;22;45259;-69
2023/03/18 06:39:34;;;;;;;;;2.75;2.75;;;;;12.67;73.97;100509.75;6277951;22;45605;-68
2023/03/18 06:42:00;;;;;;;;;2.75;2.50;;;;;12.69;73.78;100515.91;6250171;22;45370;-69
2023/03/18 06:44:25;;;;;;;;;4.00;3.50;;;;;12.79;73.85;100531.47;6277459;22;45268;-68
2023/03/18 06:46:51;;;;;;;;;2.50;2.50;;;;;12.84;73.66;100541.13;6248278;22;47314;-68
2023/03/18 06:49:17;;;;;;;;;2.00;2.00;;;;;12.87;73.74;100544.53;6276382;22;45355;-68
2023/03/18 06:51:42;;;;;;;;;5.75;5.75;;;;;12.85;73.88;100540.22;6276952;22;45194;-68
2023/03/18 06:54:08;;;;;;;;;5.00;3.75;;;;;12.77;73.39;100528.00;6250298;22;45441;-68
2023/03/18 06:56:37;;;;;;;;;4.75;4.00;;;;;12.81;73.51;100527.88;6276351;22;45346;-67
2023/03/18 06:59:04;;;;;;;;;4.25;4.25;;;;;12.93;73.68;100548.75;6249146;22;45315;-67
2023/03/18 07:01:31;;;;;;;;;3.75;3.50;;;;;12.89;73.47;100537.28;6250267;22;45477;-67
2023/03/18 07:03:57;;;;;;;;;3.00;3.00;;;;;12.90;73.39;100540.88;6276803;22;45256;-67
2023/03/18 07:06:23;;;;;;;;;5.50;3.75;;;;;12.81;73.46;100534.09;6276892;22;45314;-67
2023/03/18 07:08:49;;;;;;;;;4.00;4.00;;;;;12.92;73.46;100542.53;6277689;22;45518;-67
2023/03/18 07:11:15;;;;;;;;;3.00;3.00;;;;;12.97;73.34;100550.34;6250122;22;45280;-67
2023/03/18 07:13:40;;;;;;;;;5.00;4.75;;;;;12.90;73.42;100547.09;6276861;22;45307;-67
2023/03/18 07:16:06;;;;;;;;;4.00;4.00;;;;;12.89;73.28;100550.69;6250308;22;48084;-67
2023/03/18 07:18:31;;;;;;;;;3.00;3.00;;;;;12.93;73.68;100548.75;6276495;22;45357;-67
2023/03/18 07:20:57;;;;;;;;;3.50;3.50;;;;;12.90;73.42;100549.75;6277956;22;45398;-67
2023/03/18 07:23:23;;;;;;;;;4.25;4.25;;;;;12.86;73.36;100537.44;6277281;22;45318;-67
2023/03/18 07:25:48;;;;;;;;;5.00;3.00;;;;;13.01;73.32;100553.75;6276703;22;45252;-67
2023/03/18 07:28:14;;;;;;;;;3.00;3.00;;;;;12.97;73.58;100551.22;6274733;22;45381;-67
2023/03/18 07:30:39;;;;;;;;;3.00;3.00;;;;;13.03;73.29;100562.59;6249098;22;45614;-67
2023/03/18 07:33:05;;;;;;;;;4.50;3.25;;;;;12.97;73.67;100556.56;6276613;22;45431;-67
2023/03/18 07:35:30;;;;;;;;;2.50;2.50;;;;;12.96;73.51;100553.97;6277322;22;46162;-67
2023/03/18 07:37:55;;;;;;;;;3.00;3.00;;;;;12.91;73.30;100548.84;6277646;22;45341;-67
2023/03/18 07:40:21;;;;;;;;;4.00;4.00;;;;;13.01;73.69;100559.13;6276219;22;45380;-67
2023/03/18 07:42:47;;;;;;;;;4.00;4.00;;;;;13.02;73.34;100563.56;6276869;22;45323;-67
2023/03/18 07:45:12;;;;;;;;;2.50;2.50;;;;;13.00;73.49;100565.41;6249763;22;46852;-67
2023/03/18 07:47:37;;;;;;;;;4.00;4.00;;;;;12.92;73.57;100553.22;6249458;22;45971;-66
2023/03/18 07:50:04;;;;;;;;;5.00;4.25;;;;;12.93;73.58;100555.00;6277649;22;45366;-67
2023/03/18 07:52:30;;;;;;;;;4.00;4.00;;;;;12.92;73.64;100555.91;6277668;22;45244;-67
2023/03/18 07:54:55;;;;;;;;;3.75;3.75;;;;;13.03;73.89;100570.63;6277022;22;45893;-67
2023/03/18 07:57:20;;;;;;;;;3.00;3.00;;;;;13.03;73.56;100559.91;6275204;22;45310;-66
2023/03/18 07:59:46;;;;;;;;;4.00;2.25;;;;;13.05;74.10;100556.25;6248349;22;45606;-68
2023/03/18 08:02:13;;;;;;;;;4.00;3.00;;;;;12.97;73.87;100551.22;6277456;22;45456;-68
2023/03/18 08:04:39;;;;;;;;;3.00;3.00;;;;;13.05;73.86;100564.28;6277387;22;45446;-68
2023/03/18 08:07:05;;;;;;;;;5.00;5.00;;;;;12.93;74.02;100554.09;6249455;22;45314;-68
2023/03/18 08:09:31;;;;;;;;;2.00;2.00;;;;;12.98;73.99;100563.69;6249939;22;45841;-68
2023/03/18 08:11:56;;;;;;;;;3.00;3.00;;;;;13.05;74.15;100574.13;6277566;22;45455;-68
2023/03/18 08:14:22;;;;;;;;;2.00;2.00;;;;;12.98;74.28;100560.16;6277342;22;46605;-68
2023/03/18 08:16:48;;;;;;;;;5.00;3.25;;;;;13.04;74.51;100578.59;6274583;22;45294;-68
2023/03/18 08:19:14;;;;;;;;;4.25;4.25;;;;;12.96;74.46;100557.53;6275011;22;45251;-67
2023/03/18 08:21:39;;;;;;;;;6.00;4.75;;;;;13.07;74.68;100574.94;6277699;22;45303;-68
2023/03/18 08:24:05;;;;;;;;;6.00;4.75;;;;;13.11;75.15;100588.13;6276251;22;45894;-67
2023/03/18 08:26:31;;;;;;;;;3.25;3.25;;;;;13.02;74.94;100563.56;6248899;22;45361;-67
2023/03/18 08:28:56;;;;;;;;;5.00;5.00;;;;;12.83;74.85;100531.34;6275596;22;45355;-68
2023/03/18 08:31:22;;;;;;;;;4.00;4.00;;;;;13.11;74.82;100579.19;6276919;22;45295;-68
2023/03/18 08:33:48;;;;;;;;;4.25;4.25;;;;;13.21;74.79;100599.28;6277092;22;45311;-68
2023/03/18 08:36:14;;;;;;;;;5.50;5.50;;;;;13.19;74.82;100581.53;6276411;22;45307;-68
2023/03/18 08:38:39;;;;;;;;;4.50;3.00;;;;;13.24;74.66;100576.84;6249738;22;45381;-67
2023/03/18 08:41:05;;;;;;;;;4.00;3.75;;;;;13.31;75.23;100587.22;6277028;22;45527;-68
2023/03/18 08:43:31;;;;;;;;;7.00;5.75;;;;;13.36;75.04;100583.47;6277220;22;45388;-68
2023/03/18 08:45:57;;;;;;;;;8.25;6.25;;;;;13.28;75.04;100562.34;6249800;22;45461;-68
2023/03/18 08:48:23;;;;;;;;;6.25;6.25;;;;;13.45;74.96;100589.28;6275145;22;45334;-68
2023/03/18 08:50:49;;;;;;;;;7.50;6.75;;;;;13.48;74.52;100578.41;6275682;22;45426;-67
2023/03/18 08:53:14;;;;;;;;;6.25;6.25;;;;;13.49;74.42;100569.41;6277710;22;45501;-67
2023/03/18 08:55:40;;;;;;;;;8.25;6.50;;;;;13.51;74.61;100562.19;6276908;22;45724;-67
2023/03/18 08:58:07;;;;;;;;;8.25;7.00;;;;;13.55;74.31;100564.69;6277210;22;45324;-67
2023/03/18 09:00:35;;;;;;;;;7.00;7.00;;;;;13.48;74.44;100550.69;6275049;22;45431;-67
2023/03/18 09:03:02;;;;;;;;;6.50;6.50;;;;;13.61;74.46;100572.44;6276508;22;46462;-68
2023/03/18 09:05:29;;;;;;;;;8.00;7.00;;;;;13.64;74.75;100569.63;6275079;22;45452;-67
2023/03/18 09:07:54;;;;;;;;;7.25;6.00;;;;;13.59;74.91;100559.13;6273498;22;45406;-68
2023/03/18 09:10:20;;;;;;;;;6.00;6.00;;;;;13.73;74.19;100574.53;6275216;22;45286;-67
2023/03/18 09:12:46;;;;;;;;;6.75;5.50;;;;;13.79;73.71;100578.75;6248095;22;46409;-68
2023/03/18 09:15:17;;;;;;;;;7.50;7.00;;;;;13.84;74.34;100576.72;6248199;22;45311;-68
2023/03/18 09:17:43;;;;;;;;;5.75;5.75;;;;;13.89;73.94;100580.91;6274110;22;45602;-68
2023/03/18 09:20:11;;;;;;;;;6.00;6.00;;;;;13.87;73.77;100571.19;6275047;22;45256;-67
2023/03/18 09:22:39;;;;;;;;;6.50;5.25;;;;;13.92;73.38;100573.66;6247971;22;47256;-68
2023/03/18 09:25:05;;;;;;;;;7.50;5.00;;;;;13.97;73.32;100579.69;6274947;22;45326;-67
2023/03/18 09:27:31;;;;;;;;;4.75;4.75;;;;;14.04;73.09;100581.97;6275128;22;45392;-68
2023/03/18 09:29:56;;;;;;;;;6.75;6.75;;;;;13.98;72.31;100563.50;6273318;22;45448;-68
2023/03/18 09:32:22;;;;;;;;;4.50;4.50;;;;;14.11;73.01;100576.31;6275221;22;46206;-68
2023/03/18 09:34:47;;;;;;;;;6.00;6.00;;;;;14.08;72.71;100566.56;6275800;22;45598;-68
2023/03/18 09:37:13;;;;;;;;;4.00;4.00;;;;;14.08;72.41;100558.53;6249166;22;45405;-67
2023/03/18 09:39:40;;;;;;;;;4.75;4.75;;;;;14.22;72.45;100564.09;6277105;22;45259;-67
2023/03/18 09:42:21;;;;;;;;;4.50;4.50;;;;;14.33;72.50;100559.97;6276923;22;45468;-68
2023/03/18 09:44:54;;;;;;;;;3.50;2.50;;;;;14.35;72.42;100563.44;6277254;22;45250;-68
2023/03/18 09:47:27;;;;;;;;;6.00;4.75;;;;;14.38;72.42;100552.56;6276741;22;45393;-68
2023/03/18 09:50:14;;;;;;;;;3.00;3.00;;;;;14.49;72.33;100563.63;6277171;22;45443;-68
2023/03/18 09:52:49;;;;;;;;;5.00;4.25;;;;;14.55;72.19;100566.00;6277296;22;46244;-68
2023/03/18 09:55:49;;;;;;;;;3.00;3.00;;;;;14.62;71.64;100563.91;6275762;22;45434;-68
2023/03/18 09:58:22;;;;;;;;;5.00;2.50;;;;;14.58;71.42;100555.09;6264425;22;45303;-68
2023/03/18 10:00:52;;;;;;;;;4.50;4.00;;;;;14.60;71.19;100555.03;6276481;22;45198;-68
2023/03/18 10:03:20;;;;;;;;;3.75;3.75;;;;;14.75;70.75;100580.22;6274693;22;46323;-68
2023/03/18 10:05:55;;;;;;;;;3.00;3.00;;;;;14.79;70.63;100566.56;6276828;22;45405;-68
2023/03/18 10:08:42;;;;;;;;;2.75;2.75;;;;;14.73;70.44;100555.25;6276999;22;45342;-68
2023/03/18 10:11:34;;;;;;;;;3.00;3.00;;;;;14.91;70.18;100564.16;6276595;22;45185;-68
2023/03/18 10:14:06;;;;;;;;;3.00;3.00;;;;;14.94;69.55;100564.88;6269072;22;45445;-68
2023/03/18 10:16:50;;;;;;;;;6.75;3.25;;;;;14.99;69.57;100561.94;6276369;22;45519;-68
2023/03/18 10:19:16;;;;;;;;;1.50;1.50;;;;;14.96;70.29;100551.34;6277188;22;45434;-68
2023/03/18 10:21:48;;;;;;;;;4.50;2.50;;;;;15.08;69.35;100574.00;6276691;22;45295;-68
2023/03/18 10:24:23;;;;;;;;;2.00;2.00;;;;;15.10;68.98;100570.31;6248474;22;46756;-68
2023/03/18 10:27:16;;;;;;;;;2.00;2.00;;;;;15.07;68.47;100566.88;6275758;22;45474;-67
2023/03/18 10:29:57;;;;;;;;;2.75;2.75;;;;;15.12;68.24;100570.22;6248854;22;45254;-66
2023/03/18 10:32:42;;;;;;;;;4.00;3.00;;;;;15.19;68.27;100569.78;6247367;22;45558;-67
2023/03/18 10:35:32;;;;;;;;;3.00;3.00;;;;;15.28;67.71;100578.31;6275757;22;46022;-67
2023/03/18 10:38:03;;;;;;;;;3.00;2.00;;;;;15.26;67.56;100567.63;6276153;22;45277;-67
2023/03/18 10:40:41;;;;;;;;;3.00;2.00;;;;;15.29;67.36;100562.09;6276714;22;45340;-67
2023/03/18 10:43:29;;;;;;;;;3.00;2.00;;;;;15.38;66.93;100566.97;6250221;22;45294;-67
2023/03/18 10:46:08;;;;;;;;;1.00;1.00;;;;;15.39;66.78;100570.53;6278026;22;45363;-67
2023/03/18 10:48:38;;;;;;;;;2.75;2.00;;;;;15.48;66.79;100571.84;6277790;22;45560;-67
2023/03/18 10:51:18;;;;;;;;;1.00;1.00;;;;;15.51;66.24;100564.47;6278200;22;45371;-67
2023/03/18 10:54:01;;;;;;;;;2.00;1.00;;;;;15.57;65.98;100571.34;6276124;22;45593;-65
2023/03/18 10:56:27;;;;;;;;;1.50;1.50;;;;;15.34;65.76;100527.75;6277253;22;45378;-66
2023/03/18 10:58:53;;;;;;;;;2.75;2.50;;;;;15.60;65.45;100571.13;6276223;22;45319;-67
2023/03/18 11:01:21;;;;;;;;;2.00;1.00;;;;;15.54;64.76;100566.97;6277793;22;45320;-66
2023/03/18 11:04:05;;;;;;;;;1.00;1.00;;;;;15.57;64.64;100572.19;6277879;22;45255;-66
2023/03/18 11:06:40;;;;;;;;;1.00;1.00;;;;;15.61;64.20;100574.72;6276607;22;46417;-66
2023/03/18 11:09:09;;;;;;;;;2.25;2.25;;;;;15.52;63.81;100557.28;6249431;22;45659;-66
2023/03/18 11:11:39;;;;;;;;;2.00;2.00;;;;;15.63;64.04;100578.19;6276559;22;45548;-66
2023/03/18 11:14:11;;;;;;;;;1.00;1.00;;;;;15.61;64.05;100578.28;6275339;22;45323;-66
2023/03/18 11:16:48;;;;;;;;;0.75;0.75;;;;;15.67;64.22;100577.03;6267531;22;47346;-66
2023/03/18 11:19:23;;;;;;;;;2.25;1.00;;;;;15.68;63.50;100579.66;6247454;22;45671;-65
2023/03/18 11:22:00;;;;;;;;;1.00;1.00;;;;;15.66;63.21;100570.81;6276683;22;45418;-66
2023/03/18 11:24:41;;;;;;;;;2.00;1.00;;;;;15.69;63.34;100583.22;6275410;22;45868;-66